Time;durP1;ratioP1;P1;durP2;ratioP2;P2;SDS_P1;SDS_P2;PMS_P1;PMS_P2;Temp;Humidity;BMP_temperature;BMP_pressure;BME280_temperature;BME280_humidity;BME280_pressure;Samples;Min_cycle;Max_cycle;Signal;HPM_P1;HPM_P2
2022/05/23 00:05:13;;;;;;;3.10;0.83;;;;;;;;;;20749453;28;20204;-74
2022/05/23 00:15:15;;;;;;;1.30;0.50;;;;;;;;;;20749378;28;20251;-73
2022/05/23 00:25:17;;;;;;;2.03;0.60;;;;;;;;;;20748515;28;20278;-73
2022/05/23 00:35:20;;;;;;;1.40;0.60;;;;;;;;;;20746804;28;20294;-74
2022/05/23 00:45:25;;;;;;;1.97;0.90;;;;;;;;;;20746275;28;20209;-73
2022/05/23 00:55:40;;;;;;;1.40;0.77;;;;;;;;;;20747353;28;20262;-73
2022/05/23 01:05:42;;;;;;;0.83;0.60;;;;;;;;;;20728490;28;20203;-73
2022/05/23 01:15:45;;;;;;;1.03;0.60;;;;;;;;;;20743751;28;20261;-73
2022/05/23 01:25:48;;;;;;;0.87;0.60;;;;;;;;;;20726976;28;20214;-73
2022/05/23 01:36:05;;;;;;;2.17;0.80;;;;;;;;;;20775934;23;20234;-78
2022/05/23 01:46:08;;;;;;;2.40;0.80;;;;;;;;;;20678982;28;20273;-77
2022/05/23 01:56:27;;;;;;;1.20;0.63;;;;;;;;;;20716246;28;20219;-77
2022/05/23 02:06:29;;;;;;;2.20;0.80;;;;;;;;;;20715549;28;20214;-79
2022/05/23 02:16:35;;;;;;;0.83;0.60;;;;;;;;;;20719485;28;20251;-77
2022/05/23 02:26:37;;;;;;;1.00;0.63;;;;;;;;;;20709042;28;20240;-77
2022/05/23 02:37:02;;;;;;;0.93;0.70;;;;;;;;;;20690779;28;20235;-77
2022/05/23 02:47:23;;;;;;;1.23;0.63;;;;;;;;;;20697766;28;20762;-77
2022/05/23 02:57:27;;;;;;;2.13;0.80;;;;;;;;;;20712961;28;20214;-78
2022/05/23 03:07:29;;;;;;;1.03;0.70;;;;;;;;;;20718405;28;20223;-77
2022/05/23 03:17:35;;;;;;;2.27;0.70;;;;;;;;;;20712593;28;20230;-78
2022/05/23 03:27:39;;;;;;;0.93;0.60;;;;;;;;;;20714243;28;20226;-78
2022/05/23 03:37:50;;;;;;;0.90;0.50;;;;;;;;;;20709992;28;20215;-77
2022/05/23 03:47:54;;;;;;;2.13;0.83;;;19.90;99.90;;;;;;20665097;28;20223;-78
2022/05/23 03:57:56;;;;;;;2.00;0.80;;;;;;;;;;20669795;28;20608;-77
2022/05/23 04:07:58;;;;;;;3.40;0.90;;;;;;;;;;20673238;28;20215;-77
2022/05/23 04:18:10;;;;;;;1.90;0.70;;;;;;;;;;20710092;28;20230;-78
2022/05/23 04:28:14;;;;;;;2.10;0.87;;;;;;;;;;20697723;28;20303;-79
2022/05/23 04:38:18;;;;;;;1.27;0.70;;;19.50;99.90;;;;;;20677913;28;20219;-78
2022/05/23 04:58:46;;;;;;;1.30;0.73;;;;;;;;;;20682873;28;20659;-77
2022/05/23 05:08:49;;;;;;;1.10;0.70;;;;;;;;;;20674262;28;20240;-78
2022/05/23 05:18:51;;;;;;;1.03;0.60;;;;;;;;;;20734108;28;20248;-77
2022/05/23 05:29:16;;;;;;;1.80;0.80;;;;;;;;;;20684872;28;20255;-76
2022/05/23 05:39:20;;;;;;;1.07;0.60;;;;;;;;;;20702546;28;20216;-77
2022/05/23 05:49:24;;;;;;;1.30;0.80;;;;;;;;;;20718966;28;20243;-79
2022/05/23 05:59:28;;;;;;;1.50;0.80;;;19.20;99.90;;;;;;20693137;28;20217;-77
2022/05/23 06:19:52;;;;;;;0.87;0.60;;;;;;;;;;20728080;28;20311;-78
2022/05/23 06:29:57;;;;;;;2.00;0.57;;;;;;;;;;20695711;28;20606;-78
2022/05/23 06:40:19;;;;;;;1.37;0.70;;;;;;;;;;20721694;28;20218;-77
2022/05/23 06:50:33;;;;;;;1.20;0.70;;;;;;;;;;20729085;28;20322;-77
2022/05/23 07:00:50;;;;;;;1.07;0.63;;;;;;;;;;20680766;28;20261;-75
2022/05/23 07:21:20;;;;;;;1.10;0.70;;;;;;;;;;20708250;28;20282;-78
2022/05/23 07:31:45;;;;;;;1.60;1.17;;;;;;;;;;20722922;28;20229;-78
2022/05/23 07:41:47;;;;;;;1.10;0.77;;;;;;;;;;20846745;22;20251;-72
2022/05/23 07:51:53;;;;;;;2.30;0.90;;;;;;;;;;20894674;28;20230;-72
2022/05/23 08:02:07;;;;;;;1.43;0.90;;;;;;;;;;20879629;28;20298;-72
2022/05/23 08:12:11;;;;;;;1.23;0.67;;;;;;;;;;20890484;28;20217;-72
2022/05/23 08:22:14;;;;;;;0.80;0.60;;;;;;;;;;20875133;28;20684;-72
2022/05/23 08:32:28;;;;;;;1.80;0.83;;;;;;;;;;20888309;28;20204;-73
2022/05/23 08:42:35;;;;;;;0.93;0.60;;;;;;;;;;20855674;28;20236;-72
2022/05/23 08:52:53;;;;;;;1.37;0.80;;;;;;;;;;20855500;28;20484;-72
2022/05/23 09:03:44;;;;;;;1.80;0.73;;;;;;;;;;20844107;28;20215;-72
2022/05/23 09:13:46;;;;;;;1.70;0.60;;;;;;;;;;20840537;28;20655;-72
2022/05/23 09:23:50;;;;;;;1.17;0.63;;;;;;;;;;20899713;28;20228;-73
2022/05/23 09:33:54;;;;;;;1.50;0.70;;;;;;;;;;20897597;28;20600;-72
2022/05/23 09:54:40;;;;;;;1.10;0.70;;;;;;;;;;20865886;28;20215;-72
2022/05/23 10:04:43;;;;;;;2.00;0.73;;;;;;;;;;20885108;28;20269;-72
2022/05/23 10:14:49;;;;;;;2.67;0.90;;;23.10;99.90;;;;;;20894341;28;20219;-73
2022/05/23 10:25:05;;;;;;;1.73;0.80;;;;;;;;;;20900261;28;20225;-72
2022/05/23 10:35:21;;;;;;;1.08;0.70;;;23.00;99.90;;;;;;20876155;28;20775;-73
2022/05/23 10:45:23;;;;;;;3.40;1.00;;;;;;;;;;20881968;28;20608;-73
2022/05/23 10:55:37;;;;;;;1.55;0.70;;;;;;;;;;20871081;28;20214;-73
2022/05/23 11:06:03;;;;;;;1.70;0.75;;;;;;;;;;20885480;28;20242;-74
2022/05/23 11:16:12;;;;;;;1.00;0.80;;;;;;;;;;20908738;28;20628;-73
2022/05/23 11:26:17;;;;;;;9.13;4.68;;;;;;;;;;20918633;28;20259;-74
2022/05/23 11:36:24;;;;;;;2.85;1.00;;;22.70;99.90;;;;;;20921062;28;20264;-74
2022/05/23 11:46:46;;;;;;;0.70;0.60;;;;;;;;;;20919918;28;20241;-72
2022/05/23 11:56:49;;;;;;;3.03;0.98;;;;;;;;;;20920032;28;20214;-71
2022/05/23 12:06:50;;;;;;;1.60;1.02;;;;;;;;;;20903269;28;20282;-74
2022/05/23 12:16:54;;;;;;;1.83;1.20;;;22.60;99.90;;;;;;20897128;28;20583;-71
2022/05/23 12:26:59;;;;;;;1.60;0.93;;;;;;;;;;20858472;28;20210;-75
2022/05/23 12:37:04;;;;;;;2.75;1.17;;;;;;;;;;20885110;28;20224;-71
2022/05/23 12:47:05;;;;;;;1.42;0.85;;;;;;;;;;20900584;28;20206;-71
2022/05/23 12:57:17;;;;;;;4.50;1.30;;;;;;;;;;20822459;28;20226;-70
2022/05/23 13:07:24;;;;;;;2.45;1.20;;;;;;;;;;20831138;28;20352;-76
2022/05/23 13:17:42;;;;;;;1.35;0.95;;;;;;;;;;20903691;28;20709;-71
2022/05/23 13:27:49;;;;;;;2.92;1.15;;;23.80;99.90;;;;;;20848858;28;20219;-71
2022/05/23 13:37:51;;;;;;;1.67;1.02;;;;;;;;;;20867409;28;20222;-71
2022/05/23 13:47:58;;;;;;;3.33;0.90;;;;;;;;;;20927325;22;20223;-75
2022/05/23 13:58:03;;;;;;;4.18;1.38;;;;;;;;;;20946839;28;20268;-75
2022/05/23 14:08:05;;;;;;;2.08;1.15;;;25.00;99.90;;;;;;20914448;28;20217;-76
2022/05/23 14:18:14;;;;;;;2.88;1.00;;;;;;;;;;20905566;28;20634;-76
2022/05/23 14:28:20;;;;;;;1.50;0.95;;;25.30;99.90;;;;;;20914725;28;20736;-75
2022/05/23 14:38:28;;;;;;;1.70;1.13;;;;;;;;;;20904966;28;20245;-74
2022/05/23 14:48:33;;;;;;;2.45;1.17;;;;;;;;;;20900646;28;20713;-76
2022/05/23 15:08:59;;;;;;;1.60;0.90;;;;;;;;;;20903401;28;20208;-76
2022/05/23 15:19:01;;;;;;;2.35;1.05;;;;;;;;;;20894812;28;20259;-76
2022/05/23 15:29:03;;;;;;;1.33;0.80;;;;;;;;;;20887074;28;20213;-76
2022/05/23 15:39:07;;;;;;;1.88;1.10;;;;;;;;;;20852155;28;20428;-74
2022/05/23 15:49:10;;;;;;;3.53;1.15;;;;;;;;;;20932345;28;20224;-75
2022/05/23 15:59:13;;;;;;;2.22;1.00;;;;;;;;;;20902365;28;20659;-75
2022/05/23 16:09:15;;;;;;;1.83;0.80;;;;;;;;;;20904819;28;20220;-78
2022/05/23 16:19:19;;;;;;;2.53;0.80;;;26.30;99.90;;;;;;20906394;28;20289;-75
2022/05/23 16:29:21;;;;;;;2.05;0.95;;;;;;;;;;20906819;28;20201;-76
2022/05/23 16:39:23;;;;;;;1.63;0.93;;;;;;;;;;20926114;28;20228;-76
2022/05/23 16:49:27;;;;;;;1.88;0.95;;;;;;;;;;20903669;28;20733;-77
2022/05/23 16:59:29;;;;;;;1.90;0.98;;;;;;;;;;20874392;28;20225;-76
2022/05/23 17:09:31;;;;;;;2.65;1.10;;;;;;;;;;20843772;28;20248;-77
2022/05/23 17:19:32;;;;;;;2.38;1.00;;;;;;;;;;20902490;28;20215;-76
2022/05/23 17:29:34;;;;;;;0.77;0.50;;;;;;;;;;20892092;28;20211;-76
2022/05/23 17:39:36;;;;;;;1.42;0.40;;;;;;;;;;20888052;28;20254;-76
2022/05/23 17:49:38;;;;;;;2.60;0.70;;;;;;;;;;20894160;28;20246;-76
2022/05/23 17:59:40;;;;;;;0.95;0.40;;;;;;;;;;20883199;28;20289;-76
2022/05/23 18:09:42;;;;;;;2.33;0.63;;;;;;;;;;20880296;28;20246;-75
2022/05/23 18:19:44;;;;;;;2.63;0.52;;;;;;;;;;20885987;28;20267;-78
2022/05/23 18:29:46;;;;;;;0.90;0.50;;;;;;;;;;20889434;28;20283;-77
2022/05/23 18:39:48;;;;;;;1.00;0.32;;;;;;;;;;20882072;28;20224;-77
2022/05/23 18:49:56;;;;;;;2.05;0.60;;;;;;;;;;20891721;28;20221;-77
2022/05/23 19:00:00;;;;;;;1.13;0.40;;;;;;;;;;20891035;28;20781;-76
2022/05/23 19:10:02;;;;;;;1.40;0.50;;;;;;;;;;20897139;28;20729;-79
2022/05/23 19:20:06;;;;;;;0.50;0.38;;;;;;;;;;20876620;28;20225;-76
2022/05/23 19:30:09;;;;;;;0.20;0.20;;;23.60;99.90;;;;;;20885318;28;20237;-78
2022/05/23 19:40:11;;;;;;;1.73;0.43;;;;;;;;;;20878755;28;20223;-78
2022/05/23 19:50:13;;;;;;;1.13;0.45;;;;;;;;;;20884368;28;20222;-78
2022/05/23 20:00:16;;;;;;;0.57;0.40;;;;;;;;;;20863680;28;20265;-78
2022/05/23 20:10:18;;;;;;;0.30;0.30;;;;;;;;;;20878232;28;20224;-78
2022/05/23 20:20:21;;;;;;;0.38;0.20;;;23.10;99.90;;;;;;20888134;28;20222;-79
2022/05/23 20:30:25;;;;;;;0.75;0.43;;;;;;;;;;20894389;28;20215;-77
2022/05/23 20:40:27;;;;;;;0.30;0.30;;;;;;;;;;20910656;28;20223;-79
2022/05/23 20:50:32;;;;;;;1.00;0.30;;;23.00;99.90;;;;;;20881136;28;20215;-79
2022/05/23 21:00:34;;;;;;;0.52;0.30;;;;;;;;;;20893758;28;20716;-79
2022/05/23 21:10:40;;;;;;;0.85;0.40;;;;;;;;;;20898173;28;20211;-77
2022/05/23 21:20:41;;;;;;;0.45;0.30;;;;;;;;;;20922190;28;20247;-78
2022/05/23 21:30:44;;;;;;;0.45;0.35;;;;;;;;;;20909304;28;20285;-78
2022/05/23 21:51:07;;;;;;;0.30;0.28;;;;;;;;;;20902436;28;20283;-78
2022/05/23 22:11:29;;;;;;;0.50;0.32;;;;;;;;;;20919277;28;20274;-79
2022/05/23 22:21:32;;;;;;;0.47;0.40;;;;;;;;;;20906607;28;20295;-79
2022/05/23 22:31:33;;;;;;;0.77;0.50;;;;;;;;;;20907361;28;20201;-78
2022/05/23 22:41:35;;;;;;;1.03;0.60;;;;;;;;;;20889258;28;20248;-79
2022/05/23 22:51:37;;;;;;;1.13;0.65;;;;;;;;;;20888789;28;20600;-80
2022/05/23 23:01:40;;;;;;;0.95;0.70;;;;;;;;;;20902969;28;20215;-78
2022/05/23 23:11:43;;;;;;;0.63;0.40;;;;;;;;;;20917470;28;20225;-79
2022/05/23 23:21:45;;;;;;;0.68;0.43;;;;;;;;;;20884948;28;20223;-79
2022/05/23 23:31:47;;;;;;;1.40;0.50;;;;;;;;;;20892736;28;20292;-79
2022/05/23 23:41:49;;;;;;;1.00;0.40;;;;;;;;;;20906353;28;20217;-79
2022/05/23 23:51:54;;;;;;;0.60;0.47;;;;;;;;;;20911442;28;20267;-79
